Funchal, Madeira Islands

2:45 AM WEST on September 02, 2014 (GMT +0100)
Garajau | Change Station
CLOSE
Current Station
Personal Weather Station
Location: 9125-067 Canico, SANTA CRUZ
Elevation: 610 ft
Nearby Weather Stations

Elev 610 ft 32.65 °N, 16.84 °W | Updated 13 minutes ago

Scattered Clouds
Scattered Clouds
71.0 °F
Feels Like 71.0 °F
N
1.0
Wind Variable Wind from South
Gusts 6.0 mph

Today
High -- | Low -- °F
--% Chance of Precip.
Yesterday
High -- | Low -- °F
Precip. -- in
7:42 AM 8:30 PM
Waxing Crescent, 46% visible
Pressure 30.01 in
Visibility 6.2 miles
Clouds Scattered Clouds 1600 ft
Dew Point 68 °F
Humidity 89%
Rainfall 0.00 in
Snow Depth Not available.
UV 0 out of 12
Pollen Not available.
Air Quality Not available.
Flu Activity Not available.
METAR LPMA 020130Z 25004KT 9999 SCT016 22/17 Q1016 RS24004KT 0529004KT 2326004KT

More Conditions Fewer Conditions

Pressure 30.01 in
Visibility 6.2 miles
Clouds Scattered Clouds 1600 ft
Dew Point 68 °F
Humidity 89%
Rainfall 0.00 in
Snow Depth Not available.
UV 0 out of 12
Pollen Not available.
Air Quality Not available.
Flu Activity Not available.
METAR LPMA 020130Z 25004KT 9999 SCT016 22/17 Q1016 RS24004KT 0529004KT 2326004KT

More Conditions Fewer Conditions

10-Day Weather Forecast

Almanac

Astronomy

Sep. 02, 2014 Rise Set
Actual Time 7:42 AM WEST 8:30 PM WEST
Civil Twilight 7:17 AM WEST 8:55 PM WEST
Nautical Twilight 6:47 AM WEST 9:25 PM WEST
Astronomical Twilight 6:17 AM WEST 9:55 PM WEST
Moon 2:52 PM WEST 12:45 AM WEST
Length of Visible Light 13h 38m
Length of Day
12h 48m
Tomorrow will be 1m 56s shorter.
Waxing Crescent, 46% of the Moon is Illuminated
Sep 1
Waxing Crescent
Sep 2
First Quarter
Sep 8
Full
Sep 15
Last Quarter
Sep 24
New

Yesterday's Extremes

Country Highs Country Lows

Community

WunderPhotos

Upload Photos

1,749,476 photos uploaded!

Nearby

Snow Depth

Not available.

Earthquake Activity

City Distance Mag. Time & Date
No recent earthquake activity has been reported nearby.
Minimum magnitude displayed is 2.5.

Coastal Water Temperatures

Place Temperature
No Stations Reporting

Nearby Weather Stations